Time;durP1;ratioP1;P1;durP2;ratioP2;P2;SDS_P1;SDS_P2;PMS_P1;PMS_P2;Temp;Humidity;BMP_temperature;BMP_pressure;BME280_temperature;BME280_humidity;BME280_pressure;Samples;Min_cycle;Max_cycle;Signal;HPM_P1;HPM_P2
2022/06/17 00:01:13;;;;;;;5.80;3.55;;;;;;;;;;5071619;28;20032;-66
2022/06/17 00:03:39;;;;;;;6.20;3.83;;;24.00;72.80;;;;;;5050057;28;20088;-64
2022/06/17 00:06:05;;;;;;;5.30;3.42;;;24.20;75.00;;;;;;5071710;28;20079;-64
2022/06/17 00:08:37;;;;;;;6.88;3.30;;;23.80;74.30;;;;;;5071439;28;20470;-66
2022/06/17 00:11:03;;;;;;;5.30;3.22;;;24.00;73.50;;;;;;5035013;28;20045;-64
2022/06/17 00:13:29;;;;;;;5.68;3.13;;;23.80;77.50;;;;;;5058499;28;20052;-64
2022/06/17 00:15:55;;;;;;;6.07;3.25;;;23.80;74.70;;;;;;5035498;28;20126;-64
2022/06/17 00:18:21;;;;;;;5.53;3.22;;;23.80;77.70;;;;;;5052560;28;20057;-64
2022/06/17 00:20:47;;;;;;;6.18;3.80;;;24.10;75.10;;;;;;5058923;28;20155;-65
2022/06/17 00:23:18;;;;;;;5.80;3.67;;;24.00;75.00;;;;;;5049086;28;20053;-64
2022/06/17 00:25:45;;;;;;;6.25;3.67;;;24.00;73.50;;;;;;5038870;28;20570;-64
2022/06/17 00:28:12;;;;;;;5.35;3.30;;;23.90;74.90;;;;;;5038610;28;20123;-65
2022/06/17 00:30:38;;;;;;;4.85;3.30;;;23.80;77.70;;;;;;5070028;28;20052;-64
2022/06/17 00:33:03;;;;;;;5.38;3.40;;;23.90;74.80;;;;;;5052258;28;20059;-64
2022/06/17 00:35:42;;;;;;;5.93;3.58;;;23.90;74.90;;;;;;5041469;28;20043;-63
2022/06/17 00:38:15;;;;;;;6.30;3.35;;;24.20;78.10;;;;;;5042206;28;20056;-64
2022/06/17 00:40:41;;;;;;;5.47;3.80;;;23.80;77.80;;;;;;5073742;28;20079;-66
2022/06/17 00:43:16;;;;;;;7.03;3.67;;;23.90;78.20;;;;;;5073708;28;21084;-64
2022/06/17 00:45:46;;;;;;;7.00;3.70;;;24.00;78.30;;;;;;5053937;28;20159;-64
2022/06/17 00:48:21;;;;;;;5.72;3.65;;;24.00;75.50;;;;;;5024698;28;20053;-64
2022/06/17 00:51:09;;;;;;;5.82;3.92;;;23.80;75.50;;;;;;5021658;28;20059;-64
2022/06/17 00:53:41;;;;;;;6.22;3.75;;;24.00;78.00;;;;;;5054180;28;20410;-64
2022/06/17 00:56:19;;;;;;;7.30;3.28;;;24.00;75.50;;;;;;5055500;28;20060;-64
2022/06/17 00:59:00;;;;;;;5.28;3.35;;;24.00;78.00;;;;;;5058988;28;20085;-64
2022/06/17 01:01:27;;;;;;;6.55;3.97;;;23.80;75.60;;;;;;5076050;28;20048;-64
2022/06/17 01:03:55;;;;;;;5.45;3.53;;;24.10;75.40;;;;;;5047479;28;20040;-65
2022/06/17 01:06:22;;;;;;;6.70;3.72;;;23.80;75.20;;;;;;5058377;28;20101;-64
2022/06/17 01:11:39;;;;;;;5.90;3.20;;;24.00;78.20;;;;;;5058630;28;20057;-64
2022/06/17 01:14:05;;;;;;;6.95;3.67;;;23.80;74.90;;;;;;5028360;28;20082;-64
2022/06/17 01:16:33;;;;;;;7.35;3.53;;;23.70;78.10;;;;;;5044666;28;20048;-64
2022/06/17 01:19:00;;;;;;;6.97;3.50;;;23.90;75.20;;;;;;5057440;28;20498;-64
2022/06/17 01:21:49;;;;;;;6.55;4.00;;;23.80;75.20;;;;;;5022262;28;20437;-65
2022/06/17 01:24:14;;;;;;;5.63;4.00;;;24.10;75.70;;;;;;5037906;28;20060;-64
2022/06/17 01:26:40;;;;;;;7.88;4.15;;;23.90;75.00;;;;;;5063189;28;20032;-64
2022/06/17 01:29:13;;;;;;;7.43;3.78;;;23.80;75.00;;;;;;5056979;28;20501;-64
2022/06/17 01:31:39;;;;;;;;;;;23.70;75.40;;;;;;5057670;28;20044;-64
2022/06/17 01:34:05;;;;;;;6.78;4.25;;;23.80;77.90;;;;;;5057378;28;19927;-64
2022/06/17 01:36:31;;;;;;;6.13;3.97;;;23.80;77.80;;;;;;5053969;28;20111;-64
2022/06/17 01:38:58;;;;;;;7.57;4.20;;;23.90;75.10;;;;;;5063871;28;20053;-64
2022/06/17 01:41:25;;;;;;;7.13;3.83;;;23.80;75.20;;;;;;5054259;28;20402;-64
2022/06/17 01:43:54;;;;;;;8.73;4.63;;;23.60;78.40;;;;;;5020696;28;20052;-64
2022/06/17 01:46:24;;;;;;;6.43;3.83;;;23.90;75.30;;;;;;5066135;28;20482;-64
2022/06/17 01:49:02;;;;;;;8.93;4.10;;;23.70;77.70;;;;;;5034488;28;20048;-64
2022/06/17 01:51:28;;;;;;;7.07;4.07;;;24.00;74.10;;;;;;5041511;28;20044;-64
2022/06/17 01:53:56;;;;;;;5.65;3.95;;;23.80;75.20;;;;;;5040566;28;20045;-64
2022/06/17 01:56:23;;;;;;;9.10;4.15;;;24.00;75.30;;;;;;5036172;28;20052;-64
2022/06/17 01:58:59;;;;;;;6.20;4.10;;;23.70;75.20;;;;;;5075919;28;20049;-64
2022/06/17 02:01:26;;;;;;;7.25;3.63;;;23.80;78.00;;;;;;5043231;28;20072;-64
2022/06/17 02:03:54;;;;;;;5.72;3.50;;;23.70;75.10;;;;;;5073260;28;20055;-64
2022/06/17 02:06:25;;;;;;;7.60;3.40;;;23.80;75.20;;;;;;5056856;28;20040;-64
2022/06/17 02:08:52;;;;;;;9.15;4.05;;;23.90;73.80;;;;;;5053118;28;20056;-64
2022/06/17 02:11:17;;;;;;;5.78;3.28;;;23.70;75.00;;;;;;5047744;28;20413;-64
2022/06/17 02:13:43;;;;;;;5.85;3.55;;;23.70;74.90;;;;;;5032310;28;20045;-64
2022/06/17 02:16:09;;;;;;;6.00;3.80;;;23.70;74.90;;;;;;5056999;28;20057;-65
2022/06/17 02:18:35;;;;;;;6.47;3.75;;;24.10;75.10;;;;;;5073107;28;20053;-64
2022/06/17 02:21:03;;;;;;;6.03;3.70;;;23.80;74.80;;;;;;5080281;28;20047;-64
2022/06/17 02:23:29;;;;;;;7.25;3.78;;;23.80;75.50;;;;;;5056154;28;20129;-64
2022/06/17 02:25:54;;;;;;;7.03;3.53;;;23.60;74.70;;;;;;5073131;28;20072;-64
2022/06/17 02:28:20;;;;;;;7.30;3.88;;;23.90;74.80;;;;;;5056283;28;20076;-64
2022/06/17 02:30:47;;;;;;;7.13;4.10;;;23.80;74.70;;;;;;5067771;28;20441;-64
2022/06/17 02:33:12;;;;;;;7.50;3.92;;;23.80;74.70;;;;;;4992310;28;20045;-64
2022/06/17 02:35:56;;;;;;;7.10;4.18;;;24.00;78.00;;;;;;5054297;28;20052;-64
2022/06/17 02:38:25;;;;;;;5.93;3.88;;;23.80;77.60;;;;;;5019679;28;20053;-64
2022/06/17 02:41:05;;;;;;;7.05;3.95;;;23.70;74.90;;;;;;5041411;28;20062;-64
2022/06/17 02:43:34;;;;;;;6.45;3.80;;;23.50;77.40;;;;;;5072100;28;20040;-64
2022/06/17 02:46:17;;;;;;;5.85;4.00;;;24.00;75.00;;;;;;5052118;28;20048;-67
2022/06/17 02:48:48;;;;;;;6.20;3.70;;;23.70;77.50;;;;;;5051716;28;20505;-64
2022/06/17 02:51:14;;;;;;;6.65;4.28;;;23.60;74.80;;;;;;5022307;28;20049;-64
2022/06/17 02:53:39;;;;;;;7.38;4.10;;;23.90;74.40;;;;;;5046812;28;20082;-64
2022/06/17 02:56:35;;;;;;;5.45;3.90;;;23.60;74.40;;;;;;5039159;28;20048;-64
2022/06/17 02:59:20;;;;;;;6.20;4.18;;;24.00;77.60;;;;;;4960401;28;20141;-64
2022/06/17 03:01:46;;;;;;;6.38;3.75;;;23.90;77.60;;;;;;4977453;28;20149;-64
2022/06/17 03:04:17;;;;;;;7.70;3.97;;;23.40;74.00;;;;;;4985545;28;20529;-64
2022/06/17 03:06:45;;;;;;;5.97;3.60;;;23.80;77.40;;;;;;4965858;28;20400;-65
2022/06/17 03:09:15;;;;;;;6.47;3.85;;;23.70;77.90;;;;;;4963831;28;20057;-64
2022/06/17 03:11:41;;;;;;;7.05;4.18;;;23.80;74.60;;;;;;4995397;28;20058;-64
2022/06/17 03:14:09;;;;;;;7.35;4.25;;;23.50;77.20;;;;;;4986971;28;20054;-64
2022/06/17 03:16:35;;;;;;;5.70;3.40;;;23.60;77.30;;;;;;4976334;28;20402;-64
2022/06/17 03:19:01;;;;;;;6.07;3.78;;;23.60;74.40;;;;;;4991775;28;20061;-64
2022/06/17 03:21:26;;;;;;;5.57;3.75;;;23.60;74.00;;;;;;4975647;28;20160;-64
2022/06/17 03:24:03;;;;;;;6.53;3.78;;;23.60;74.90;;;;;;4999886;28;20042;-64
2022/06/17 03:26:31;;;;;;;7.20;3.85;;;23.50;74.30;;;;;;4977611;28;20069;-64
2022/06/17 03:28:57;;;;;;;8.75;4.13;;;23.70;74.50;;;;;;4976179;28;20069;-64
2022/06/17 03:31:25;;;;;;;7.35;4.15;;;23.60;77.10;;;;;;4975632;28;20050;-64
2022/06/17 03:34:02;;;;;;;5.05;3.80;;;23.70;74.40;;;;;;4978148;28;20094;-64
2022/06/17 03:36:44;;;;;;;7.53;3.90;;;23.60;77.10;;;;;;5048667;28;20499;-64
2022/06/17 03:39:37;;;;;;;7.45;4.15;;;23.80;73.20;;;;;;5028596;28;20117;-64
2022/06/17 03:42:27;;;;;;;7.57;4.00;;;23.70;73.20;;;;;;5054606;28;20398;-64
2022/06/17 03:45:02;;;;;;;5.93;3.70;;;23.40;73.00;;;;;;5057024;28;20520;-64
2022/06/17 03:47:57;;;;;;;5.88;3.85;;;23.70;77.10;;;;;;5031302;28;20441;-65
2022/06/17 03:50:37;;;;;;;6.07;3.80;;;23.60;77.00;;;;;;5052345;28;20131;-65
2022/06/17 03:53:22;;;;;;;5.82;3.70;;;23.90;74.80;;;;;;5019413;28;20045;-65
2022/06/17 03:55:47;;;;;;;6.00;3.97;;;23.80;77.00;;;;;;5034670;28;20037;-64
2022/06/17 03:58:15;;;;;;;6.78;3.95;;;23.70;76.90;;;;;;5025436;28;20479;-64
2022/06/17 04:01:08;;;;;;;7.20;3.70;;;23.80;76.70;;;;;;5075412;28;20044;-64
2022/06/17 04:03:34;;;;;;;6.97;3.80;;;23.70;77.20;;;;;;5054769;28;20095;-64
2022/06/17 04:06:16;;;;;;;7.10;3.90;;;23.90;77.00;;;;;;5034275;28;20079;-64
2022/06/17 04:08:58;;;;;;;6.72;4.18;;;23.80;74.50;;;;;;5054574;28;20119;-65
2022/06/17 04:11:30;;;;;;;6.88;4.03;;;23.70;71.90;;;;;;5076759;28;20075;-65
2022/06/17 04:13:57;;;;;;;6.47;3.92;;;23.80;74.30;;;;;;5055642;28;20049;-65
2022/06/17 04:16:43;;;;;;;5.97;4.05;;;23.70;76.50;;;;;;5059301;28;20109;-65
2022/06/17 04:19:15;;;;;;;5.93;3.83;;;23.90;76.60;;;;;;5064883;28;20074;-64
2022/06/17 04:21:41;;;;;;;6.25;3.92;;;23.90;74.10;;;;;;5074676;28;20048;-64
2022/06/17 04:24:23;;;;;;;5.90;3.85;;;24.00;73.70;;;;;;5058634;28;20048;-64
2022/06/17 04:27:00;;;;;;;5.50;3.85;;;24.00;76.70;;;;;;5041312;28;20049;-64
2022/06/17 04:29:41;;;;;;;8.50;4.25;;;24.10;76.40;;;;;;5048986;28;20052;-64
2022/06/17 04:32:31;;;;;;;7.35;4.10;;;24.20;74.00;;;;;;5055258;28;20084;-64
2022/06/17 04:34:56;;;;;;;8.18;3.80;;;24.00;73.80;;;;;;4943599;28;20137;-64
2022/06/17 04:37:22;;;;;;;6.22;3.95;;;24.10;76.20;;;;;;4978017;28;20130;-65
2022/06/17 04:39:53;;;;;;;7.00;3.83;;;24.00;73.30;;;;;;4964974;28;20050;-65
2022/06/17 04:42:29;;;;;;;6.07;3.47;;;24.00;76.00;;;;;;4994827;28;20046;-65
2022/06/17 04:44:55;;;;;;;7.03;3.58;;;;;;;;;;4978968;28;20129;-64
2022/06/17 04:47:21;;;;;;;6.85;4.07;;;24.30;76.00;;;;;;4978579;28;20090;-64
2022/06/17 04:50:09;;;;;;;7.18;3.80;;;24.10;73.00;;;;;;4965016;28;20620;-69
2022/06/17 04:52:41;;;;;;;7.18;3.85;;;24.40;76.00;;;;;;4984490;28;20062;-64
2022/06/17 04:55:23;;;;;;;7.00;3.80;;;24.40;73.40;;;;;;4963381;28;20058;-64
2022/06/17 04:57:49;;;;;;;7.40;3.78;;;24.60;71.90;;;;;;4963192;28;20039;-64
2022/06/17 05:00:23;;;;;;;6.45;3.88;;;24.20;73.10;;;;;;4990238;28;20519;-64
2022/06/17 05:02:49;;;;;;;7.03;3.70;;;24.40;73.50;;;;;;4993445;28;20578;-64
2022/06/17 05:05:34;;;;;;;7.50;4.10;;;24.40;75.90;;;;;;4978019;28;20058;-64
2022/06/17 05:08:00;;;;;;;5.40;3.35;;;24.30;73.50;;;;;;4980033;28;20145;-64
2022/06/17 05:10:28;;;;;;;6.38;3.47;;;24.40;73.20;;;;;;4977065;28;20054;-64
2022/06/17 05:13:01;;;;;;;9.35;3.83;;;24.30;73.20;;;;;;5041926;28;20064;-63
2022/06/17 05:15:26;;;;;;;5.55;3.53;;;24.60;76.40;;;;;;5074792;28;20060;-63
2022/06/17 05:17:54;;;;;;;7.60;3.70;;;24.50;73.20;;;;;;5039317;28;20449;-64
2022/06/17 05:20:21;;;;;;;6.25;3.97;;;24.20;76.60;;;;;;5070961;28;20047;-64
2022/06/17 05:22:57;;;;;;;6.35;3.40;;;24.40;73.60;;;;;;5067094;28;20048;-64
2022/06/17 05:25:25;;;;;;;6.88;3.78;;;24.40;76.50;;;;;;5073287;28;20123;-64
2022/06/17 05:27:51;;;;;;;5.70;3.35;;;24.40;73.80;;;;;;5075716;28;20072;-63
2022/06/17 05:30:17;;;;;;;5.70;3.50;;;;;;;;;;5073729;28;20079;-65
2022/06/17 05:33:01;;;;;;;5.70;3.30;;;24.20;76.50;;;;;;5085601;28;20559;-70
2022/06/17 05:35:26;;;;;;;7.32;3.63;;;24.30;74.00;;;;;;5074301;28;20052;-64
2022/06/17 05:37:52;;;;;;;6.13;3.80;;;24.30;73.60;;;;;;5063655;28;20501;-66
2022/06/17 05:40:19;;;;;;;6.22;3.42;;;24.20;76.50;;;;;;5037286;28;20041;-64
2022/06/17 05:42:45;;;;;;;5.28;3.53;;;24.30;73.80;;;;;;5067743;28;20041;-64
2022/06/17 05:45:17;;;;;;;6.07;3.65;;;24.30;73.90;;;;;;5049443;28;20041;-64
2022/06/17 05:47:42;;;;;;;5.23;3.00;;;24.40;74.20;;;;;;5020752;28;20079;-65
2022/06/17 05:50:12;;;;;;;5.55;3.47;;;24.30;73.60;;;;;;5054853;28;20045;-64
2022/06/17 05:53:08;;;;;;;6.80;3.53;;;24.20;74.30;;;;;;5062282;28;20068;-64
2022/06/17 05:55:34;;;;;;;6.20;3.88;;;24.10;74.40;;;;;;5028958;28;20510;-64
2022/06/17 05:58:00;;;;;;;5.50;3.35;;;24.20;74.20;;;;;;5036245;28;20048;-68
2022/06/17 06:00:26;;;;;;;5.80;3.70;;;24.10;76.90;;;;;;5036019;28;20057;-64
2022/06/17 06:02:55;;;;;;;6.30;3.92;;;24.20;77.20;;;;;;5047974;28;20048;-64
2022/06/17 06:05:21;;;;;;;7.60;3.38;;;24.40;74.60;;;;;;5027495;28;20056;-64
2022/06/17 06:07:48;;;;;;;5.97;3.75;;;24.30;77.50;;;;;;5016112;28;20087;-64
2022/06/17 06:10:13;;;;;;;6.50;3.45;;;24.30;74.30;;;;;;5016069;28;20502;-65
2022/06/17 06:12:57;;;;;;;5.63;3.35;;;24.00;74.00;;;;;;4999663;28;20061;-64
2022/06/17 06:15:36;;;;;;;5.03;3.28;;;24.40;77.30;;;;;;5016580;28;20045;-67
2022/06/17 06:18:02;;;;;;;5.97;3.22;;;24.40;73.20;;;;;;4980084;28;20216;-64
2022/06/17 06:20:28;;;;;;;7.25;3.60;;;24.40;77.30;;;;;;5021547;28;20127;-66
2022/06/17 06:22:54;;;;;;;5.40;3.30;;;24.30;77.60;;;;;;5030306;28;20611;-64
2022/06/17 06:25:20;;;;;;;5.85;3.47;;;24.10;74.30;;;;;;5029960;28;20518;-64
2022/06/17 06:27:45;;;;;;;5.80;3.33;;;24.30;77.70;;;;;;5019763;28;20136;-65
2022/06/17 06:30:21;;;;;;;5.93;3.30;;;24.40;74.30;;;;;;5014033;28;20049;-64
2022/06/17 06:32:58;;;;;;;5.50;3.58;;;24.40;73.40;;;;;;5033631;28;20052;-64
2022/06/17 06:35:27;;;;;;;6.75;3.47;;;24.40;77.80;;;;;;5043300;28;20064;-64
2022/06/17 06:37:52;;;;;;;6.93;3.70;;;24.50;74.60;;;;;;5036572;28;20053;-64
2022/06/17 06:40:18;;;;;;;5.30;3.38;;;24.50;77.50;;;;;;5051354;28;20047;-64
2022/06/17 06:42:46;;;;;;;5.55;2.97;;;24.40;74.40;;;;;;5035382;28;20053;-64
2022/06/17 06:45:14;;;;;;;7.45;3.60;;;24.60;74.80;;;;;;5022635;28;20112;-64
2022/06/17 06:47:40;;;;;;;6.88;3.78;;;24.60;77.50;;;;;;5052680;28;20053;-64
2022/06/17 06:50:08;;;;;;;6.63;3.60;;;24.40;77.80;;;;;;5052575;28;20136;-64
2022/06/17 06:52:34;;;;;;;6.88;3.13;;;24.60;74.20;;;;;;5043175;28;20384;-64
2022/06/17 06:55:00;;;;;;;7.57;3.55;;;24.50;77.50;;;;;;5034193;28;20115;-64
2022/06/17 06:57:26;;;;;;;7.75;3.85;;;24.40;77.90;;;;;;5042636;28;20056;-64
2022/06/17 06:59:52;;;;;;;6.55;3.80;;;24.50;74.70;;;;;;5052699;28;20433;-64
2022/06/17 07:02:18;;;;;;;7.65;3.67;;;;;;;;;;5050583;28;20079;-64
2022/06/17 07:04:43;;;;;;;5.88;3.28;;;24.50;72.80;;;;;;5050416;28;20427;-81
2022/06/17 07:07:10;;;;;;;6.25;3.47;;;24.40;77.50;;;;;;5052571;28;20079;-77
2022/06/17 07:09:36;;;;;;;5.28;3.40;;;24.40;77.40;;;;;;5034823;28;20084;-64
2022/06/17 07:12:02;;;;;;;6.15;3.63;;;24.30;77.50;;;;;;5050824;28;20470;-64
2022/06/17 07:14:28;;;;;;;6.05;3.30;;;24.60;78.20;;;;;;5051332;28;20099;-64
2022/06/17 07:16:54;;;;;;;7.05;3.28;;;24.60;78.20;;;;;;5053013;28;20110;-64
2022/06/17 07:19:19;;;;;;;5.50;3.38;;;24.50;74.70;;;;;;5057753;28;20049;-64
2022/06/17 07:21:45;;;;;;;5.80;3.45;;;24.70;77.80;;;;;;5053547;28;20045;-64
2022/06/17 07:24:13;;;;;;;5.95;3.45;;;24.60;78.00;;;;;;5055412;28;20512;-64
2022/06/17 07:26:39;;;;;;;6.97;3.60;;;24.80;74.80;;;;;;5071995;28;20052;-64
2022/06/17 07:29:04;;;;;;;5.85;3.50;;;24.60;78.00;;;;;;5070383;28;20389;-64
2022/06/17 07:31:30;;;;;;;5.22;3.55;;;24.60;74.40;;;;;;5070109;28;20053;-64
2022/06/17 07:33:57;;;;;;;6.20;3.70;;;24.90;77.90;;;;;;5071068;28;20055;-64
2022/06/17 07:41:55;;;;;;;6.18;3.60;;;24.60;74.80;;;;;;5044323;28;20052;-80
2022/06/17 07:44:21;;;;;;;6.82;3.53;;;24.70;77.90;;;;;;5073889;28;20059;-79
2022/06/17 07:46:47;;;;;;;7.00;3.85;;;24.80;74.80;;;;;;5070449;28;20485;-80
2022/06/17 07:49:13;;;;;;;6.43;4.10;;;24.90;75.00;;;;;;5062238;28;20049;-70
2022/06/17 07:51:38;;;;;;;6.40;3.88;;;24.80;77.90;;;;;;5024939;28;20045;-74
2022/06/17 07:54:04;;;;;;;8.77;4.10;;;24.80;74.60;;;;;;5065546;28;20048;-85
2022/06/17 07:56:30;;;;;;;6.82;3.80;;;24.90;74.80;;;;;;5074457;28;20404;-74
2022/06/17 07:58:55;;;;;;;6.00;3.83;;;24.80;77.80;;;;;;5074591;28;20528;-64
2022/06/17 08:01:21;;;;;;;7.75;3.95;;;25.00;74.90;;;;;;5066769;28;20486;-65
2022/06/17 08:03:47;;;;;;;6.97;3.80;;;24.90;78.10;;;;;;5059276;28;20044;-65
2022/06/17 08:06:13;;;;;;;8.13;3.70;;;25.00;74.70;;;;;;5058979;28;20080;-65
2022/06/17 08:08:40;;;;;;;6.82;3.95;;;25.00;77.60;;;;;;5038150;28;20056;-69
2022/06/17 08:11:06;;;;;;;7.13;4.00;;;24.90;74.50;;;;;;5052922;28;20056;-65
2022/06/17 08:13:32;;;;;;;6.35;3.78;;;25.20;74.90;;;;;;5042591;28;20098;-64
2022/06/17 08:16:01;;;;;;;5.10;3.78;;;25.10;74.50;;;;;;5058611;28;20483;-65
2022/06/17 08:18:27;;;;;;;7.65;4.45;;;25.30;75.00;;;;;;5051863;28;20060;-64
2022/06/17 08:20:53;;;;;;;6.45;3.67;;;25.30;74.50;;;;;;5047604;28;20398;-64
2022/06/17 08:23:20;;;;;;;6.80;4.20;;;25.50;77.40;;;;;;5042410;28;20045;-64
2022/06/17 08:25:46;;;;;;;6.68;3.88;;;25.30;74.20;;;;;;5042215;28;20060;-64
2022/06/17 08:28:12;;;;;;;5.88;3.95;;;25.40;74.30;;;;;;5048391;28;20051;-64
2022/06/17 08:30:43;;;;;;;9.20;3.90;;;25.70;74.10;;;;;;5054860;28;20044;-64
2022/06/17 08:33:09;;;;;;;6.82;3.67;;;25.70;72.70;;;;;;5041942;28;20045;-64
2022/06/17 08:35:37;;;;;;;6.05;4.20;;;25.60;73.70;;;;;;5055791;28;20498;-64
2022/06/17 08:38:16;;;;;;;7.57;4.38;;;25.70;73.90;;;;;;5058428;28;20051;-64
2022/06/17 08:40:53;;;;;;;7.57;3.72;;;25.90;72.30;;;;;;5054608;28;20063;-64
2022/06/17 08:43:36;;;;;;;7.82;4.07;;;25.80;72.40;;;;;;5040526;28;20072;-65
2022/06/17 08:46:13;;;;;;;6.50;4.03;;;26.00;72.30;;;;;;5022131;28;20060;-64
2022/06/17 08:48:42;;;;;;;6.60;3.92;;;26.30;74.10;;;;;;5021755;28;20049;-64
2022/06/17 08:51:45;;;;;;;6.93;3.90;;;26.20;73.30;;;;;;5070589;28;20091;-64
2022/06/17 08:54:25;;;;;;;6.03;3.67;;;26.00;71.90;;;;;;5070250;28;20055;-64
2022/06/17 08:57:13;;;;;;;6.55;3.78;;;26.20;71.90;;;;;;5044028;28;20080;-65
2022/06/17 08:59:54;;;;;;;8.73;3.88;;;26.70;72.30;;;;;;5056596;28;20049;-65
2022/06/17 09:02:51;;;;;;;6.72;3.58;;;26.50;71.90;;;;;;5055100;28;20422;-65
2022/06/17 09:05:23;;;;;;;6.97;3.60;;;26.30;71.80;;;;;;5039883;28;20064;-66
2022/06/17 09:08:33;;;;;;;8.75;3.65;;;26.50;71.90;;;;;;4998237;28;20491;-73
2022/06/17 09:11:38;;;;;;;6.05;3.78;;;26.70;72.00;;;;;;5016844;28;20053;-75
2022/06/17 09:14:27;;;;;;;6.82;3.88;;;26.70;72.00;;;;;;5003462;28;20132;-75
2022/06/17 09:17:22;;;;;;;6.05;3.90;;;26.50;75.80;;;;;;5018332;28;20084;-74
2022/06/17 09:19:50;;;;;;;9.00;4.32;;;26.70;71.80;;;;;;5001599;28;20137;-66
2022/06/17 09:22:26;;;;;;;6.88;3.90;;;26.70;73.00;;;;;;5017084;28;20158;-64
2022/06/17 09:24:52;;;;;;;7.68;3.70;;;26.70;75.90;;;;;;5000533;28;20116;-74
2022/06/17 09:27:20;;;;;;;6.45;3.90;;;27.00;72.60;;;;;;4993797;28;20150;-66
2022/06/17 09:29:48;;;;;;;7.60;3.97;;;26.80;72.80;;;;;;4999406;28;20057;-67
2022/06/17 09:32:36;;;;;;;9.07;3.75;;;26.90;73.10;;;;;;5016014;28;20057;-70
2022/06/17 09:35:18;;;;;;;6.90;4.10;;;26.90;71.80;;;;;;5015519;28;20103;-65
2022/06/17 09:38:05;;;;;;;12.45;5.80;;;26.60;71.40;;;;;;5008906;28;20053;-67
2022/06/17 09:40:34;;;;;;;9.77;5.75;;;26.50;71.10;;;;;;5002926;28;20050;-66
2022/06/17 09:43:23;;;;;;;7.88;5.38;;;26.60;72.70;;;;;;5035889;28;20076;-70
2022/06/17 09:46:00;;;;;;;7.00;4.50;;;26.60;71.40;;;;;;5034676;28;20466;-67
2022/06/17 09:48:36;;;;;;;9.38;5.68;;;26.40;73.50;;;;;;5051889;28;20118;-65
2022/06/17 09:51:15;;;;;;;8.45;5.60;;;26.30;75.60;;;;;;5031447;28;20449;-66
2022/06/17 09:53:49;;;;;;;9.88;5.40;;;26.10;72.70;;;;;;5035846;28;20076;-64
2022/06/17 09:56:52;;;;;;;9.98;5.55;;;26.00;71.40;;;;;;5059800;28;20443;-66
2022/06/17 09:59:34;;;;;;;9.60;5.60;;;26.10;71.70;;;;;;5030438;28;20047;-66
2022/06/17 10:02:20;;;;;;;8.82;5.55;;;26.10;73.60;;;;;;5035336;28;20136;-65
2022/06/17 10:04:46;;;;;;;12.52;5.25;;;25.80;71.80;;;;;;5037971;28;20422;-65
2022/06/17 10:07:20;;;;;;;21.45;5.55;;;25.80;73.20;;;;;;5052660;28;20053;-65
2022/06/17 10:10:23;;;;;;;9.63;4.93;;;26.10;73.90;;;;;;5052270;28;20053;-64
2022/06/17 10:13:25;;;;;;;9.75;5.20;;;25.80;72.50;;;;;;5025717;28;20143;-66
2022/06/17 10:19:09;;;;;;;7.53;5.13;;;25.80;74.00;;;;;;4982532;28;20393;-64
2022/06/17 10:22:04;;;;;;;9.43;5.20;;;25.70;73.50;;;;;;5011163;28;20088;-64
2022/06/17 10:24:57;;;;;;;8.75;5.05;;;25.70;73.60;;;;;;4974824;28;20120;-69
2022/06/17 10:27:40;;;;;;;10.02;5.47;;;25.90;73.60;;;;;;4915979;29;20052;-66
2022/06/17 10:30:11;;;;;;;8.35;4.75;;;25.80;72.30;;;;;;4899334;29;20093;-65
2022/06/17 10:32:40;;;;;;;8.90;5.68;;;25.60;71.80;;;;;;4916002;29;20059;-64
2022/06/17 10:35:12;;;;;;;11.65;5.13;;;25.80;73.50;;;;;;4914613;29;20126;-64
2022/06/17 10:37:38;;;;;;;6.90;4.50;;;25.80;73.40;;;;;;4880692;29;20069;-64
2022/06/17 10:40:05;;;;;;;7.32;4.68;;;25.90;73.40;;;;;;4897120;29;20060;-65
2022/06/17 10:42:31;;;;;;;6.07;4.40;;;25.60;72.50;;;;;;4898166;29;20071;-65
2022/06/17 10:44:59;;;;;;;8.93;4.78;;;25.70;73.20;;;;;;4915100;29;20514;-65
2022/06/17 10:47:46;;;;;;;8.45;4.68;;;25.60;73.40;;;;;;4879227;29;20454;-64
2022/06/17 10:50:23;;;;;;;8.80;3.80;;;25.80;72.20;;;;;;4915029;29;20222;-74
2022/06/17 10:52:52;;;;;;;7.93;5.10;;;25.60;73.80;;;;;;4900069;29;20495;-64
2022/06/17 10:55:20;;;;;;;7.50;4.85;;;25.60;73.50;;;;;;4899993;29;20070;-64
2022/06/17 10:58:07;;;;;;;7.68;4.85;;;25.90;73.70;;;;;;4887127;29;20068;-64
2022/06/17 11:00:51;;;;;;;8.60;4.97;;;25.60;72.30;;;;;;4909235;28;20056;-65
2022/06/17 11:03:33;;;;;;;6.97;5.10;;;27.50;73.30;;;;;;4961443;28;20516;-74
2022/06/17 11:06:12;;;;;;;16.25;6.40;;;25.90;72.30;;;;;;5047618;28;20046;-64
2022/06/17 11:08:52;;;;;;;7.70;4.72;;;25.70;72.20;;;;;;5049065;28;20109;-75
2022/06/17 11:14:21;;;;;;;7.40;5.28;;;25.50;73.60;;;;;;5025697;28;20060;-64
2022/06/17 11:16:47;;;;;;;9.60;5.55;;;25.70;74.00;;;;;;5033898;28;20056;-64
2022/06/17 11:19:15;;;;;;;7.68;5.65;;;25.50;73.20;;;;;;5047373;28;20049;-64
2022/06/17 11:21:46;;;;;;;8.40;5.53;;;25.60;73.70;;;;;;5052137;28;20049;-65
2022/06/17 11:24:43;;;;;;;9.77;5.78;;;25.50;72.20;;;;;;5051575;28;20057;-64
2022/06/17 11:27:23;;;;;;;11.02;5.65;;;25.50;72.60;;;;;;5049890;28;20131;-64
2022/06/17 11:29:51;;;;;;;10.07;5.75;;;25.50;72.40;;;;;;5049911;28;20449;-64
2022/06/17 11:32:19;;;;;;;10.80;5.97;;;25.50;73.90;;;;;;5051984;28;20055;-64
2022/06/17 11:34:47;;;;;;;8.43;5.05;;;25.90;74.20;;;;;;5034724;28;20044;-64
2022/06/17 11:37:20;;;;;;;10.48;6.15;;;25.70;73.90;;;;;;5052144;28;20060;-64
2022/06/17 11:39:45;;;;;;;8.02;5.28;;;25.90;72.60;;;;;;5050287;28;20084;-64
2022/06/17 11:42:14;;;;;;;8.40;5.70;;;25.70;73.60;;;;;;5048836;28;20076;-65
2022/06/17 11:44:57;;;;;;;7.97;5.45;;;25.70;73.70;;;;;;5051160;28;20098;-64
2022/06/17 11:47:24;;;;;;;10.32;5.55;;;25.80;72.50;;;;;;5015488;28;20098;-67
2022/06/17 11:49:50;;;;;;;10.30;5.13;;;25.70;73.60;;;;;;5017145;28;20446;-66
2022/06/17 11:52:33;;;;;;;7.88;4.95;;;25.80;73.60;;;;;;5037638;28;20053;-67
2022/06/17 11:54:59;;;;;;;;;;;25.90;72.40;;;;;;5003972;28;20052;-73
2022/06/17 11:57:25;;;;;;;10.80;4.80;;;26.10;73.90;;;;;;5049885;28;20385;-69
2022/06/17 11:59:53;;;;;;;9.85;5.03;;;26.10;73.50;;;;;;5050854;28;20044;-65
2022/06/17 12:02:19;;;;;;;8.07;4.45;;;26.00;73.70;;;;;;5018893;28;20045;-64
2022/06/17 12:04:51;;;;;;;8.30;4.55;;;26.00;73.40;;;;;;5019128;28;20076;-64
2022/06/17 12:07:29;;;;;;;9.07;4.63;;;26.00;72.00;;;;;;5051991;28;20057;-66
2022/06/17 12:10:28;;;;;;;10.35;4.40;;;26.10;72.20;;;;;;5050079;28;20055;-65
2022/06/17 12:12:58;;;;;;;6.90;4.28;;;26.10;72.10;;;;;;5068372;28;20068;-72
2022/06/17 12:15:42;;;;;;;7.55;4.43;;;26.10;73.40;;;;;;5052012;28;20406;-74
2022/06/17 12:18:17;;;;;;;9.52;4.30;;;26.20;72.00;;;;;;5035877;28;20126;-74
2022/06/17 12:21:13;;;;;;;8.02;4.65;;;26.30;71.70;;;;;;5032845;28;20068;-71
2022/06/17 12:23:41;;;;;;;11.75;4.70;;;26.20;71.70;;;;;;5035110;28;20061;-70
2022/06/17 12:26:35;;;;;;;9.15;4.97;;;26.30;73.00;;;;;;5005464;28;20049;-69
2022/06/17 12:29:06;;;;;;;10.38;4.80;;;26.30;71.60;;;;;;5031719;28;20057;-71
2022/06/17 12:32:00;;;;;;;10.20;4.70;;;26.20;72.90;;;;;;5023060;28;20128;-67
2022/06/17 12:34:45;;;;;;;6.85;4.20;;;26.20;71.50;;;;;;5055827;28;20041;-67
2022/06/17 12:37:17;;;;;;;19.42;5.10;;;26.40;71.60;;;;;;5055546;28;20094;-71
2022/06/17 12:40:00;;;;;;;7.60;4.30;;;26.20;72.70;;;;;;5039534;28;20048;-64
2022/06/17 12:42:49;;;;;;;10.32;4.68;;;26.20;71.20;;;;;;5054820;28;20056;-64
2022/06/17 12:45:33;;;;;;;8.63;4.70;;;26.20;71.30;;;;;;5040365;28;20084;-64
2022/06/17 12:48:04;;;;;;;11.27;4.75;;;26.50;71.60;;;;;;5056194;28;20059;-64
2022/06/17 12:54:00;;;;;;;10.32;4.80;;;26.40;71.30;;;;;;5038765;28;20059;-64
2022/06/17 12:56:38;;;;;;;11.57;4.85;;;26.40;71.40;;;;;;5055135;28;20083;-64
2022/06/17 12:59:13;;;;;;;7.97;4.45;;;26.30;71.10;;;;;;5034550;28;20048;-64
2022/06/17 13:01:45;;;;;;;8.50;4.70;;;26.30;71.30;;;;;;5035220;28;20518;-64
2022/06/17 13:04:17;;;;;;;11.23;4.80;;;26.60;71.30;;;;;;5065803;28;20111;-64
2022/06/17 13:07:13;;;;;;;9.50;4.22;;;26.40;72.80;;;;;;5054088;28;20091;-64
2022/06/17 13:13:32;;;;;;;7.18;4.07;;;26.40;71.10;;;;;;5040073;28;20050;-64
2022/06/17 13:16:07;;;;;;;8.52;4.78;;;26.50;71.30;;;;;;5015228;28;20125;-64
2022/06/17 13:18:49;;;;;;;10.23;4.50;;;26.60;72.50;;;;;;4981234;28;20054;-64
2022/06/17 13:21:14;;;;;;;8.02;4.30;;;26.60;72.40;;;;;;4989475;28;20053;-65
2022/06/17 13:23:54;;;;;;;9.70;4.75;;;26.30;72.10;;;;;;4995490;28;20447;-64
2022/06/17 13:26:27;;;;;;;10.10;4.65;;;26.40;71.00;;;;;;5012530;28;20519;-65
2022/06/17 13:28:55;;;;;;;7.30;4.80;;;26.30;72.40;;;;;;4984997;28;20207;-64
2022/06/17 13:31:31;;;;;;;8.40;4.97;;;26.40;72.40;;;;;;5000379;28;20049;-64
2022/06/17 13:34:02;;;;;;;9.63;4.80;;;26.20;72.30;;;;;;4996207;28;20054;-64
2022/06/17 13:36:56;;;;;;;7.57;4.70;;;26.30;72.40;;;;;;4970668;28;20050;-64
2022/06/17 13:39:24;;;;;;;9.05;4.22;;;26.20;72.40;;;;;;5012170;28;20050;-64